Time;durP1;ratioP1;P1;durP2;ratioP2;P2;SDS_P1;SDS_P2;PMS_P1;PMS_P2;Temp;Humidity;BMP_temperature;BMP_pressure;BME280_temperature;BME280_humidity;BME280_pressure;Samples;Min_cycle;Max_cycle;Signal;HPM_P1;HPM_P2
2023/02/28 02:26:56;;;;;;;;;;;21.20;44.40;;;;;;2929105;19;50723;-75
2023/02/28 02:28:20;;;;;;;;;;;17.60;32.60;;;;;;3068073;19;5350;-75
2023/02/28 02:29:42;;;;;;;;;;;17.50;32.50;;;;;;3065412;19;4862;-75
2023/02/28 02:31:02;;;;;;;;;;;17.50;33.20;;;;;;3063415;19;4428;-81
2023/02/28 02:32:13;;;;;;;;;;;17.50;32.60;;;;;;3061640;19;5159;-80
2023/02/28 02:33:27;;;;;;;;;;;17.50;32.30;;;;;;3052971;19;4323;-81
2023/02/28 02:34:45;;;;;;;;;;;17.50;32.20;;;;;;3054053;19;4404;-81
2023/02/28 02:35:57;;;;;;;;;;;17.50;32.10;;;;;;3052035;19;4911;-81
2023/02/28 02:37:21;;;;;;;;;;;17.50;32.30;;;;;;3051766;19;4340;-78
2023/02/28 02:38:36;;;;;;;;;;;17.60;32.40;;;;;;2951077;19;2005072;-80
2023/02/28 02:39:54;;;;;;;;;;;17.60;32.50;;;;;;3055436;19;4920;-81
2023/02/28 02:41:04;;;;;;;;;;;17.60;32.50;;;;;;3055981;19;4907;-80
2023/02/28 02:42:11;;;;;;;;;;;17.70;32.40;;;;;;3056410;19;4880;-79
2023/02/28 02:43:34;;;;;;;;;;;17.80;32.40;;;;;;3034682;19;4905;-79
2023/02/28 02:44:45;;;;;;;;;;;17.90;32.50;;;;;;3057312;19;4897;-82
2023/02/28 02:45:51;;;;;;;;;;;17.90;32.40;;;;;;3059110;19;4550;-78
2023/02/28 02:46:59;;;;;;;;;;;18.00;32.30;;;;;;3059911;19;4419;-79
2023/02/28 02:48:00;;;;;;;;;;;18.10;32.30;;;;;;3059371;19;4935;-81
2023/02/28 02:49:06;;;;;;;;;;;18.10;32.20;;;;;;3057375;19;4874;-81
2023/02/28 02:50:20;;;;;;;;;;;18.10;32.10;;;;;;3057497;19;4764;-78
2023/02/28 02:51:24;;;;;;;;;;;18.10;32.00;;;;;;3057728;19;4338;-79
2023/02/28 02:52:30;;;;;;;;;;;18.20;32.00;;;;;;3055919;19;5046;-79
2023/02/28 02:53:33;;;;;;;;;;;18.20;31.90;;;;;;3057334;19;4484;-78
2023/02/28 02:54:39;;;;;;;;;;;18.20;31.80;;;;;;3058966;19;5020;-79
2023/02/28 02:55:42;;;;;;;;;;;18.20;31.70;;;;;;3057324;19;5063;-78
2023/02/28 02:56:45;;;;;;;;;;;18.20;31.70;;;;;;3056374;19;4794;-79
2023/02/28 02:57:52;;;;;;;;;;;18.20;31.60;;;;;;3057518;19;5004;-80
2023/02/28 02:58:56;;;;;;;;;;;18.20;31.60;;;;;;3056563;19;4593;-79
2023/02/28 02:59:57;;;;;;;;;;;18.20;31.50;;;;;;3056326;19;4357;-78
2023/02/28 03:00:59;;;;;;;;;;;18.20;31.50;;;;;;3054973;19;4926;-79
2023/02/28 03:02:05;;;;;;;;;;;18.20;31.50;;;;;;3056399;19;4862;-78
2023/02/28 03:03:06;;;;;;;;;;;18.20;31.50;;;;;;3056102;19;4944;-78
2023/02/28 03:04:13;;;;;;;;;;;18.20;31.40;;;;;;3055374;19;4619;-78
2023/02/28 03:05:28;;;;;;;;;;;18.20;31.50;;;;;;3055233;19;4877;-78
2023/02/28 03:06:30;;;;;;;;;;;18.20;31.40;;;;;;3055164;19;4431;-82
2023/02/28 03:07:31;;;;;;;;;;;18.10;31.40;;;;;;3055696;19;4890;-78
2023/02/28 03:08:36;;;;;;;;;;;18.10;31.30;;;;;;3054525;19;4345;-79
2023/02/28 03:09:37;;;;;;;;;;;18.10;31.20;;;;;;3053940;19;4328;-79
2023/02/28 03:10:46;;;;;;;;;;;18.10;31.30;;;;;;3052852;19;4812;-78
2023/02/28 03:11:46;;;;;;;;;;;18.10;31.40;;;;;;3053602;19;4857;-78
2023/02/28 03:12:52;;;;;;;;;;;18.10;31.40;;;;;;3053512;19;4900;-81
2023/02/28 03:14:17;;;;;;;;;;;18.20;31.40;;;;;;3053393;19;4450;-81
2023/02/28 03:15:27;;;;;;;;;;;18.20;31.40;;;;;;3053087;19;4965;-79
2023/02/28 03:16:42;;;;;;;;;;;18.30;31.30;;;;;;3053248;19;4348;-79
2023/02/28 03:18:04;;;;;;;;;;;18.30;31.20;;;;;;3052871;19;4928;-82
2023/02/28 03:19:33;;;;;;;;;;;18.40;31.30;;;;;;3052241;19;4876;-81
2023/02/28 03:21:12;;;;;;;;;;;18.40;31.20;;;;;;2949761;19;2004871;-79
2023/02/28 03:22:31;;;;;;;;;;;18.40;31.20;;;;;;3052799;19;4790;-81
2023/02/28 03:24:04;;;;;;;;;;;18.40;31.20;;;;;;3053412;19;4472;-79
2023/02/28 03:25:14;;;;;;;;;;;18.40;31.10;;;;;;3031198;19;5018;-81
2023/02/28 03:26:25;;;;;;;;;;;18.40;31.00;;;;;;3052506;19;4979;-81
2023/02/28 03:27:28;;;;;;;;;;;18.40;31.10;;;;;;3052823;19;4347;-81
2023/02/28 03:28:29;;;;;;;;;;;18.40;30.90;;;;;;3031451;19;4335;-82
2023/02/28 03:29:53;;;;;;;;;;;18.40;31.00;;;;;;3053299;19;4432;-81
2023/02/28 03:31:14;;;;;;;;;;;18.30;31.60;;;;;;3051463;19;4868;-78
2023/02/28 03:32:33;;;;;;;;;;;18.30;31.00;;;;;;2949635;19;2004087;-78
2023/02/28 03:34:12;;;;;;;;;;;18.30;30.90;;;;;;3030645;19;4379;-80
2023/02/28 03:35:26;;;;;;;;;;;18.30;31.00;;;;;;3031055;19;4304;-80
2023/02/28 03:36:29;;;;;;;;;;;18.30;31.00;;;;;;3053058;19;4819;-81
2023/02/28 03:37:30;;;;;;;;;;;18.30;31.00;;;;;;3050453;19;5129;-79
2023/02/28 03:38:41;;;;;;;;;;;18.30;31.20;;;;;;3052531;19;5007;-80
2023/02/28 03:39:51;;;;;;;;;;;18.30;31.10;;;;;;3052136;19;4352;-81
2023/02/28 03:40:57;;;;;;;;;;;18.20;30.80;;;;;;3052212;19;4392;-78
2023/02/28 03:42:31;;;;;;;;;;;18.20;30.90;;;;;;3052542;19;4416;-79
2023/02/28 03:43:34;;;;;;;;;;;18.20;30.90;;;;;;2949982;19;2004322;-80
2023/02/28 03:45:07;;;;;;;;;;;18.30;31.00;;;;;;3050069;19;4355;-81
2023/02/28 03:46:11;;;;;;;;;;;18.30;31.00;;;;;;3051873;19;4280;-80
2023/02/28 03:47:14;;;;;;;;;;;18.30;31.00;;;;;;3051793;19;5074;-81
2023/02/28 03:48:22;;;;;;;;;;;18.30;31.00;;;;;;3052473;19;4888;-80
2023/02/28 03:49:30;;;;;;;;;;;18.40;31.00;;;;;;3052464;19;4382;-77
2023/02/28 03:50:41;;;;;;;;;;;18.40;30.80;;;;;;3053072;19;4799;-79
2023/02/28 03:51:42;;;;;;;;;;;18.40;30.90;;;;;;3032377;19;4756;-81
2023/02/28 03:52:51;;;;;;;;;;;18.40;30.80;;;;;;3052762;19;4933;-79
2023/02/28 03:54:03;;;;;;;;;;;18.40;30.80;;;;;;3052775;19;5206;-81
2023/02/28 03:55:07;;;;;;;;;;;18.40;30.80;;;;;;3052254;19;4868;-79
2023/02/28 03:56:34;;;;;;;;;;;18.40;30.80;;;;;;3047547;19;4997;-80
2023/02/28 03:57:46;;;;;;;;;;;18.40;30.70;;;;;;3053034;19;4979;-78
2023/02/28 03:59:01;;;;;;;;;;;18.40;30.80;;;;;;3052329;19;4896;-80
2023/02/28 04:00:18;;;;;;;;;;;18.40;30.80;;;;;;3051696;19;4357;-79
2023/02/28 04:01:31;;;;;;;;;;;18.40;30.80;;;;;;2949822;19;2004362;-79
2023/02/28 04:02:32;;;;;;;;;;;18.40;30.80;;;;;;3052655;19;4344;-82
2023/02/28 04:03:35;;;;;;;;;;;18.40;30.80;;;;;;3052524;19;4317;-80
2023/02/28 04:04:36;;;;;;;;;;;18.40;30.80;;;;;;3053062;19;4877;-79
2023/02/28 04:05:54;;;;;;;;;;;18.40;30.80;;;;;;3053164;19;4342;-81
2023/02/28 04:07:04;;;;;;;;;;;18.30;30.80;;;;;;3052604;19;5093;-79
2023/02/28 04:08:07;;;;;;;;;;;18.30;30.80;;;;;;3052480;19;4339;-80
2023/02/28 04:09:11;;;;;;;;;;;18.30;30.90;;;;;;3053067;19;4827;-79
2023/02/28 04:10:12;;;;;;;;;;;18.30;30.90;;;;;;3053088;19;1452;-79
2023/02/28 04:11:44;;;;;;;;;;;18.30;30.80;;;;;;3051695;19;4826;-78
2023/02/28 04:12:44;;;;;;;;;;;18.30;30.70;;;;;;3051924;19;5113;-81
2023/02/28 04:13:45;;;;;;;;;;;18.30;30.80;;;;;;3052555;19;4857;-79
2023/02/28 04:14:46;;;;;;;;;;;18.30;30.80;;;;;;3052451;19;4948;-81
2023/02/28 04:15:46;;;;;;;;;;;18.30;30.90;;;;;;3051823;19;4348;-77
2023/02/28 04:16:47;;;;;;;;;;;18.30;30.80;;;;;;3051926;19;4809;-79
2023/02/28 04:17:48;;;;;;;;;;;18.30;30.80;;;;;;3052746;19;4392;-81
2023/02/28 04:18:48;;;;;;;;;;;18.40;30.80;;;;;;3052085;19;4363;-80
2023/02/28 04:19:50;;;;;;;;;;;18.40;30.80;;;;;;3052173;19;4871;-79
2023/02/28 04:20:50;;;;;;;;;;;18.40;30.70;;;;;;3051755;19;4493;-81
2023/02/28 04:21:51;;;;;;;;;;;18.40;30.70;;;;;;3052284;19;4323;-81
2023/02/28 04:22:52;;;;;;;;;;;18.40;30.60;;;;;;3031335;19;4321;-79
2023/02/28 04:23:54;;;;;;;;;;;18.40;30.60;;;;;;3052632;19;4339;-79
2023/02/28 04:24:55;;;;;;;;;;;18.40;30.50;;;;;;3051703;19;4348;-80
2023/02/28 04:25:59;;;;;;;;;;;18.40;30.60;;;;;;3052088;19;4870;-78
2023/02/28 04:27:02;;;;;;;;;;;18.40;30.50;;;;;;3051646;19;4912;-81
2023/02/28 04:28:02;;;;;;;;;;;18.40;30.50;;;;;;3052040;19;4727;-82
2023/02/28 04:29:04;;;;;;;;;;;18.40;30.60;;;;;;3052748;19;5116;-79
2023/02/28 04:30:06;;;;;;;;;;;18.40;30.50;;;;;;3051822;19;4810;-80
2023/02/28 04:31:06;;;;;;;;;;;18.40;30.60;;;;;;3049857;19;4841;-79
2023/02/28 04:32:07;;;;;;;;;;;18.40;30.60;;;;;;3051392;19;4931;-80
2023/02/28 04:33:08;;;;;;;;;;;18.40;30.70;;;;;;3051083;19;4910;-81
2023/02/28 04:34:08;;;;;;;;;;;18.40;30.60;;;;;;3050967;19;4830;-80
2023/02/28 04:35:09;;;;;;;;;;;18.40;30.70;;;;;;3052033;19;4931;-81
2023/02/28 04:36:10;;;;;;;;;;;18.30;30.70;;;;;;3051591;19;4855;-80
2023/02/28 04:37:10;;;;;;;;;;;18.30;30.50;;;;;;3052448;19;1155;-81
2023/02/28 04:38:11;;;;;;;;;;;18.30;30.50;;;;;;3029588;19;4873;-80
2023/02/28 04:39:13;;;;;;;;;;;18.30;30.50;;;;;;3052009;19;4853;-81
2023/02/28 04:40:14;;;;;;;;;;;18.30;30.50;;;;;;3052319;19;4840;-80
2023/02/28 04:41:15;;;;;;;;;;;18.30;30.50;;;;;;3051102;19;4462;-84
2023/02/28 04:42:17;;;;;;;;;;;18.30;30.60;;;;;;3051424;19;4974;-79
2023/02/28 04:43:19;;;;;;;;;;;18.30;30.70;;;;;;3052182;19;5081;-81
2023/02/28 04:44:20;;;;;;;;;;;18.30;31.40;;;;;;3051663;19;4982;-78
2023/02/28 04:45:22;;;;;;;;;;;18.20;30.70;;;;;;3052030;19;4844;-79
2023/02/28 04:46:23;;;;;;;;;;;18.30;30.70;;;;;;3031520;19;4337;-79
2023/02/28 04:47:24;;;;;;;;;;;18.30;30.80;;;;;;3051807;19;5079;-79
2023/02/28 04:48:25;;;;;;;;;;;18.30;30.70;;;;;;3050205;19;4428;-78
2023/02/28 04:49:26;;;;;;;;;;;18.30;30.60;;;;;;3052350;19;4966;-80
2023/02/28 04:50:29;;;;;;;;;;;18.30;31.30;;;;;;3047927;19;4954;-80
2023/02/28 04:51:30;;;;;;;;;;;18.30;30.60;;;;;;3052500;19;4955;-79
2023/02/28 04:52:30;;;;;;;;;;;18.40;30.60;;;;;;3052426;19;4341;-77
2023/02/28 04:53:31;;;;;;;;;;;18.40;30.60;;;;;;3052305;19;4318;-80
2023/02/28 04:54:32;;;;;;;;;;;18.40;30.60;;;;;;3052063;19;4840;-79
2023/02/28 04:55:32;;;;;;;;;;;18.40;30.40;;;;;;3052253;19;4420;-79
2023/02/28 04:56:34;;;;;;;;;;;18.40;30.50;;;;;;3051542;19;4344;-79
2023/02/28 04:57:34;;;;;;;;;;;18.40;30.40;;;;;;3051250;19;4593;-80
2023/02/28 04:58:37;;;;;;;;;;;18.40;30.40;;;;;;3052224;19;4897;-81
2023/02/28 04:59:38;;;;;;;;;;;18.40;30.40;;;;;;3052121;19;4841;-79
2023/02/28 05:00:39;;;;;;;;;;;18.40;30.40;;;;;;3052360;19;4783;-79
2023/02/28 05:01:40;;;;;;;;;;;18.40;30.40;;;;;;3052656;19;4962;-80
2023/02/28 05:02:40;;;;;;;;;;;18.50;30.50;;;;;;3052704;19;4816;-80
2023/02/28 05:03:42;;;;;;;;;;;18.50;30.40;;;;;;3052273;19;4846;-80
2023/02/28 05:04:43;;;;;;;;;;;18.50;30.40;;;;;;3051931;19;4371;-80
2023/02/28 05:05:45;;;;;;;;;;;18.50;30.30;;;;;;3052908;19;5001;-80
2023/02/28 05:06:46;;;;;;;;;;;18.50;30.20;;;;;;3052411;19;4866;-79
2023/02/28 05:07:46;;;;;;;;;;;18.60;30.30;;;;;;3053191;19;4936;-79
2023/02/28 05:08:47;;;;;;;;;;;18.60;30.30;;;;;;3051794;19;4321;-80
2023/02/28 05:09:47;;;;;;;;;;;18.60;30.30;;;;;;3052466;19;4494;-78
2023/02/28 05:10:48;;;;;;;;;;;18.60;30.20;;;;;;3053493;19;5085;-79
2023/02/28 05:11:49;;;;;;;;;;;18.60;30.10;;;;;;3053758;19;4981;-79
2023/02/28 05:12:49;;;;;;;;;;;18.60;30.20;;;;;;3053669;19;4855;-80
2023/02/28 05:13:50;;;;;;;;;;;18.60;30.10;;;;;;3052578;19;4600;-81
2023/02/28 05:14:51;;;;;;;;;;;18.60;30.20;;;;;;3052407;19;4838;-79
2023/02/28 05:15:52;;;;;;;;;;;18.60;30.10;;;;;;3051270;19;4896;-78
2023/02/28 05:16:54;;;;;;;;;;;18.60;30.10;;;;;;3052962;19;4889;-79
2023/02/28 05:17:55;;;;;;;;;;;18.60;30.10;;;;;;3051266;19;4380;-79
2023/02/28 05:18:56;;;;;;;;;;;18.70;30.10;;;;;;3052848;19;4356;-80
2023/02/28 05:19:57;;;;;;;;;;;18.70;30.10;;;;;;3053148;19;4314;-81
2023/02/28 05:21:01;;;;;;;;;;;18.70;30.10;;;;;;3052384;19;4810;-81
2023/02/28 05:22:02;;;;;;;;;;;18.70;30.10;;;;;;3051278;19;4367;-79
2023/02/28 05:23:03;;;;;;;;;;;18.70;30.00;;;;;;3051268;19;4830;-79
2023/02/28 05:24:09;;;;;;;;;;;18.70;30.00;;;;;;3051601;19;4983;-79
2023/02/28 05:25:12;;;;;;;;;;;18.70;30.00;;;;;;3051376;19;4821;-79
2023/02/28 05:26:12;;;;;;;;;;;18.70;30.00;;;;;;3051624;19;4876;-78
2023/02/28 05:27:13;;;;;;;;;;;18.80;30.00;;;;;;3051173;19;4977;-79
2023/02/28 05:28:14;;;;;;;;;;;18.80;30.00;;;;;;3051545;19;4987;-79
2023/02/28 05:29:16;;;;;;;;;;;18.70;30.00;;;;;;3050952;19;4980;-79
2023/02/28 05:30:16;;;;;;;;;;;18.80;30.00;;;;;;3051117;19;4987;-84
2023/02/28 05:31:19;;;;;;;;;;;18.80;30.00;;;;;;3050100;19;4410;-78
2023/02/28 05:32:19;;;;;;;;;;;18.80;30.00;;;;;;3050818;19;4276;-80
2023/02/28 05:33:20;;;;;;;;;;;18.80;30.00;;;;;;3050625;19;5013;-81
2023/02/28 05:34:21;;;;;;;;;;;18.80;30.00;;;;;;3050263;19;4316;-79
2023/02/28 05:35:21;;;;;;;;;;;18.80;30.00;;;;;;3051221;19;4377;-80
2023/02/28 05:36:22;;;;;;;;;;;18.80;29.90;;;;;;3049866;19;4357;-78
2023/02/28 05:37:23;;;;;;;;;;;18.80;29.90;;;;;;3051756;19;4918;-80
2023/02/28 05:38:23;;;;;;;;;;;18.70;29.90;;;;;;3050778;19;4891;-78
2023/02/28 05:39:25;;;;;;;;;;;18.70;30.00;;;;;;3050706;19;4877;-80
2023/02/28 05:40:26;;;;;;;;;;;18.70;30.10;;;;;;3050685;19;4349;-79
2023/02/28 05:41:27;;;;;;;;;;;18.60;30.00;;;;;;3050899;19;4948;-80
2023/02/28 05:42:28;;;;;;;;;;;18.60;30.10;;;;;;3051187;19;4577;-80
2023/02/28 05:43:30;;;;;;;;;;;18.60;30.10;;;;;;3050436;19;4555;-79
2023/02/28 05:44:30;;;;;;;;;;;18.60;30.10;;;;;;3050098;19;4349;-79
2023/02/28 05:45:31;;;;;;;;;;;18.70;30.10;;;;;;3050437;19;5966;-81
2023/02/28 05:46:31;;;;;;;;;;;18.70;30.10;;;;;;3050758;19;4320;-79
2023/02/28 05:47:32;;;;;;;;;;;18.70;30.20;;;;;;3049907;19;4887;-81
2023/02/28 05:48:35;;;;;;;;;;;18.80;30.00;;;;;;3051029;19;4343;-79
2023/02/28 05:49:35;;;;;;;;;;;18.80;30.00;;;;;;3050604;19;4983;-80
2023/02/28 05:50:36;;;;;;;;;;;18.90;30.10;;;;;;3050447;19;4846;-82
2023/02/28 05:51:39;;;;;;;;;;;18.90;30.00;;;;;;3051010;19;4421;-79
2023/02/28 05:52:40;;;;;;;;;;;19.00;30.00;;;;;;3050911;19;4894;-79
2023/02/28 05:53:41;;;;;;;;;;;19.10;30.00;;;;;;3050697;19;4443;-80
2023/02/28 05:54:41;;;;;;;;;;;19.10;29.90;;;;;;3049337;19;4843;-80
2023/02/28 05:55:42;;;;;;;;;;;19.10;29.90;;;;;;3050457;19;5488;-81
2023/02/28 05:56:45;;;;;;;;;;;19.10;29.80;;;;;;3051180;19;4390;-81
2023/02/28 05:57:46;;;;;;;;;;;19.20;29.80;;;;;;3051351;19;4879;-79
2023/02/28 05:58:46;;;;;;;;;;;19.20;29.80;;;;;;3051856;19;4403;-79
2023/02/28 05:59:47;;;;;;;;;;;19.20;29.70;;;;;;3050559;19;4298;-80
2023/02/28 06:00:48;;;;;;;;;;;19.20;29.70;;;;;;3050986;19;4352;-78
2023/02/28 06:01:49;;;;;;;;;;;19.20;29.70;;;;;;3050082;19;5072;-80
2023/02/28 06:02:56;;;;;;;;;;;19.20;29.70;;;;;;3050881;19;4842;-78
2023/02/28 06:03:58;;;;;;;;;;;19.20;29.70;;;;;;3050925;19;4617;-80
2023/02/28 06:04:59;;;;;;;;;;;19.10;29.60;;;;;;3050261;19;4291;-78
2023/02/28 06:06:00;;;;;;;;;;;19.10;29.60;;;;;;3050160;19;4969;-80
2023/02/28 06:07:01;;;;;;;;;;;19.10;29.70;;;;;;3050417;19;4804;-79
2023/02/28 06:08:02;;;;;;;;;;;19.00;29.70;;;;;;3053365;19;4303;-80
2023/02/28 06:09:04;;;;;;;;;;;19.00;29.70;;;;;;3053307;19;4840;-78
2023/02/28 06:10:05;;;;;;;;;;;19.00;29.80;;;;;;3053500;19;4293;-79
2023/02/28 06:11:06;;;;;;;;;;;19.00;29.80;;;;;;3053263;19;5017;-78
2023/02/28 06:12:09;;;;;;;;;;;19.00;29.90;;;;;;3053930;19;974;-78
2023/02/28 06:13:11;;;;;;;;;;;19.00;29.80;;;;;;3053229;19;4888;-79
2023/02/28 06:14:15;;;;;;;;;;;19.00;29.90;;;;;;3053371;19;4331;-81
2023/02/28 06:15:16;;;;;;;;;;;19.00;29.80;;;;;;3053110;19;4960;-81
2023/02/28 06:16:17;;;;;;;;;;;19.10;29.80;;;;;;3053208;19;4390;-82
2023/02/28 06:17:17;;;;;;;;;;;19.20;29.80;;;;;;3053388;19;4953;-79
2023/02/28 06:18:18;;;;;;;;;;;19.20;29.70;;;;;;3033025;19;4918;-79
2023/02/28 06:19:19;;;;;;;;;;;19.20;29.70;;;;;;3052942;19;4399;-78
2023/02/28 06:20:20;;;;;;;;;;;19.30;29.70;;;;;;3052505;19;4922;-80
2023/02/28 06:21:21;;;;;;;;;;;19.30;29.60;;;;;;3052560;19;4955;-80
2023/02/28 06:22:21;;;;;;;;;;;19.30;29.60;;;;;;3031788;19;4286;-85
2023/02/28 06:23:23;;;;;;;;;;;19.30;29.50;;;;;;3048727;19;4451;-80
2023/02/28 06:24:24;;;;;;;;;;;19.30;29.50;;;;;;3052841;19;4372;-82
2023/02/28 06:25:26;;;;;;;;;;;19.30;29.50;;;;;;3053194;19;4339;-79
2023/02/28 06:26:26;;;;;;;;;;;19.30;29.50;;;;;;3053602;19;4785;-80
2023/02/28 06:27:27;;;;;;;;;;;19.30;29.50;;;;;;3054057;19;4923;-79
2023/02/28 06:28:28;;;;;;;;;;;19.30;29.50;;;;;;3053704;19;4377;-78
2023/02/28 06:29:28;;;;;;;;;;;19.30;29.50;;;;;;3053667;19;5100;-78
2023/02/28 06:30:30;;;;;;;;;;;19.20;29.50;;;;;;3053335;19;4820;-79
2023/02/28 06:31:32;;;;;;;;;;;19.20;29.50;;;;;;3052560;19;4448;-80
2023/02/28 06:32:32;;;;;;;;;;;19.20;29.40;;;;;;3053471;19;4974;-79
2023/02/28 06:33:33;;;;;;;;;;;19.20;29.50;;;;;;3053770;19;4913;-78
2023/02/28 06:34:34;;;;;;;;;;;19.20;29.60;;;;;;3053099;19;4937;-79
2023/02/28 06:35:35;;;;;;;;;;;19.20;29.50;;;;;;3052721;19;4965;-80
2023/02/28 06:36:38;;;;;;;;;;;19.20;29.50;;;;;;3052417;19;4874;-79
2023/02/28 06:37:39;;;;;;;;;;;19.10;29.50;;;;;;3053428;19;4880;-79
2023/02/28 06:38:40;;;;;;;;;;;19.20;29.70;;;;;;3053303;19;4925;-79
2023/02/28 06:39:41;;;;;;;;;;;19.20;29.60;;;;;;3052920;19;4956;-81
2023/02/28 06:40:42;;;;;;;;;;;19.20;29.60;;;;;;3053186;19;4955;-77
2023/02/28 06:41:45;;;;;;;;;;;19.20;29.70;;;;;;3052825;19;5007;-79
2023/02/28 06:42:46;;;;;;;;;;;19.20;29.60;;;;;;3053351;19;4938;-80
2023/02/28 06:43:46;;;;;;;;;;;19.20;29.60;;;;;;3052872;19;4443;-81
2023/02/28 06:44:47;;;;;;;;;;;19.30;29.60;;;;;;3053614;19;4878;-80
2023/02/28 06:45:48;;;;;;;;;;;19.30;29.60;;;;;;3053460;19;4359;-79
2023/02/28 06:46:51;;;;;;;;;;;19.40;29.50;;;;;;3043250;19;4943;-79
2023/02/28 06:47:53;;;;;;;;;;;19.40;29.40;;;;;;3052453;19;4874;-81
2023/02/28 06:48:54;;;;;;;;;;;19.40;29.40;;;;;;3053468;19;4817;-79
2023/02/28 06:49:55;;;;;;;;;;;19.40;29.40;;;;;;3053319;19;4887;-80
2023/02/28 06:51:03;;;;;;;;;;;19.50;29.40;;;;;;3053061;19;4437;-78
2023/02/28 06:52:04;;;;;;;;;;;19.50;29.30;;;;;;3053163;19;4729;-81
2023/02/28 06:53:05;;;;;;;;;;;19.50;29.30;;;;;;3053257;19;4792;-78
2023/02/28 06:54:09;;;;;;;;;;;19.50;29.30;;;;;;3051977;19;4862;-80
2023/02/28 06:55:10;;;;;;;;;;;19.50;29.30;;;;;;3053496;19;1164;-80
2023/02/28 06:56:13;;;;;;;;;;;19.50;29.30;;;;;;3052437;19;5033;-78
2023/02/28 06:57:16;;;;;;;;;;;19.50;29.30;;;;;;3050984;19;4804;-80
2023/02/28 06:58:18;;;;;;;;;;;19.50;29.30;;;;;;3051441;19;4810;-78
2023/02/28 06:59:19;;;;;;;;;;;19.50;29.30;;;;;;3052130;19;4820;-80
2023/02/28 07:00:20;;;;;;;;;;;19.50;29.20;;;;;;3053596;19;4878;-79
2023/02/28 07:01:23;;;;;;;;;;;19.50;29.20;;;;;;3052517;19;4976;-80
2023/02/28 07:02:25;;;;;;;;;;;19.50;29.20;;;;;;3051540;19;4496;-79
2023/02/28 07:03:27;;;;;;;;;;;19.50;29.30;;;;;;3052542;19;4841;-77
2023/02/28 07:04:29;;;;;;;;;;;19.50;29.20;;;;;;3053563;19;4968;-82
2023/02/28 07:05:30;;;;;;;;;;;19.50;29.20;;;;;;3052342;19;4460;-80
2023/02/28 07:06:30;;;;;;;;;;;19.40;29.30;;;;;;3053268;19;4929;-81
2023/02/28 07:07:36;;;;;;;;;;;19.40;29.20;;;;;;3051594;19;4908;-80
2023/02/28 07:08:36;;;;;;;;;;;19.40;29.30;;;;;;3052511;19;4528;-79
2023/02/28 07:09:39;;;;;;;;;;;19.40;29.30;;;;;;3052631;19;5447;-80
2023/02/28 07:10:40;;;;;;;;;;;19.30;29.30;;;;;;3050490;19;4389;-81
2023/02/28 07:11:42;;;;;;;;;;;19.30;29.30;;;;;;3052503;19;4864;-80
2023/02/28 07:12:43;;;;;;;;;;;19.30;29.40;;;;;;3051437;19;5533;-80
2023/02/28 07:13:44;;;;;;;;;;;19.30;29.40;;;;;;3051056;19;4412;-79
2023/02/28 07:14:45;;;;;;;;;;;19.30;29.50;;;;;;3030778;19;4523;-79
2023/02/28 07:16:02;;;;;;;;;;;19.30;29.50;;;;;;3052798;19;4866;-79
2023/02/28 07:17:03;;;;;;;;;;;19.30;29.50;;;;;;3053891;19;4262;-78
2023/02/28 07:18:04;;;;;;;;;;;19.40;29.50;;;;;;3054138;19;4298;-78
2023/02/28 07:19:04;;;;;;;;;;;19.40;29.50;;;;;;3052112;19;4853;-83
2023/02/28 07:20:05;;;;;;;;;;;19.50;29.50;;;;;;3055710;19;5007;-83
2023/02/28 07:21:08;;;;;;;;;;;19.50;29.40;;;;;;3054477;19;4949;-83
2023/02/28 07:22:09;;;;;;;;;;;19.60;29.40;;;;;;3055103;19;4370;-80
2023/02/28 07:23:09;;;;;;;;;;;19.60;29.30;;;;;;3055990;19;4966;-80
2023/02/28 07:24:10;;;;;;;;;;;19.60;29.30;;;;;;3055683;19;4415;-79
2023/02/28 07:25:11;;;;;;;;;;;19.60;29.30;;;;;;3057080;19;1998;-68
2023/02/28 07:26:14;;;;;;;;;;;19.60;29.30;;;;;;3053794;19;5574;-69
2023/02/28 07:27:23;;;;;;;;;;;19.60;29.20;;;;;;3054254;19;4986;-68
2023/02/28 07:28:24;;;;;;;;;;;19.60;29.20;;;;;;3054174;19;4417;-70
2023/02/28 07:29:25;;;;;;;;;;;19.60;29.20;;;;;;3053276;19;5072;-70
2023/02/28 07:30:25;;;;;;;;;;;19.60;29.30;;;;;;3054924;19;4397;-81
2023/02/28 07:31:26;;;;;;;;;;;19.50;29.20;;;;;;3054904;19;4926;-81
2023/02/28 07:32:27;;;;;;;;;;;19.50;29.20;;;;;;3055986;19;5407;-80
2023/02/28 07:33:28;;;;;;;;;;;19.50;29.20;;;;;;3055897;19;4308;-81
2023/02/28 07:34:31;;;;;;;;;;;19.50;29.20;;;;;;3033571;19;4393;-81
2023/02/28 07:35:32;;;;;;;;;;;19.50;29.20;;;;;;3055078;19;4413;-89
2023/02/28 07:36:33;;;;;;;;;;;19.40;29.20;;;;;;3056421;19;4367;-91
2023/02/28 07:37:36;;;;;;;;;;;19.40;29.20;;;;;;3056123;19;4875;-91
2023/02/28 07:38:37;;;;;;;;;;;19.40;29.30;;;;;;3056068;19;6505;-90
2023/02/28 07:39:37;;;;;;;;;;;19.40;29.40;;;;;;3055493;19;4927;-90
2023/02/28 07:40:38;;;;;;;;;;;19.40;29.40;;;;;;3054224;19;4966;-70
2023/02/28 07:41:43;;;;;;;;;;;19.40;29.30;;;;;;3055062;19;4539;-70
2023/02/28 07:42:43;;;;;;;;;;;19.40;29.30;;;;;;3053830;19;4936;-70
2023/02/28 07:43:44;;;;;;;;;;;19.50;29.30;;;;;;3055726;19;4931;-70
2023/02/28 07:44:45;;;;;;;;;;;19.50;29.30;;;;;;3054548;19;5529;-70
2023/02/28 07:45:46;;;;;;;;;;;19.50;29.30;;;;;;3054530;19;4428;-71
2023/02/28 07:46:47;;;;;;;;;;;19.50;29.30;;;;;;3055215;19;4793;-70
2023/02/28 07:47:49;;;;;;;;;;;19.50;29.30;;;;;;3055498;19;4279;-70
2023/02/28 07:48:50;;;;;;;;;;;19.50;29.30;;;;;;3055192;19;4343;-69
2023/02/28 07:49:51;;;;;;;;;;;19.50;29.30;;;;;;3054543;19;4486;-69
2023/02/28 07:50:58;;;;;;;;;;;19.50;29.10;;;;;;3054620;19;4492;-68
2023/02/28 07:51:58;;;;;;;;;;;19.50;29.20;;;;;;3055951;19;5039;-68
2023/02/28 07:52:59;;;;;;;;;;;19.50;29.20;;;;;;3058983;19;4998;-68
2023/02/28 07:54:00;;;;;;;;;;;19.50;29.20;;;;;;3062777;19;4860;-68
2023/02/28 07:55:00;;;;;;;;;;;19.50;29.30;;;;;;3062159;19;4961;-68
2023/02/28 07:56:01;;;;;;;;;;;19.40;29.30;;;;;;3058786;19;4382;-68
2023/02/28 07:57:02;;;;;;;;;;;19.40;29.70;;;;;;3067172;19;4570;-69
2023/02/28 07:58:03;;;;;;;;;;;19.40;30.00;;;;;;3068104;19;4864;-68
2023/02/28 07:59:03;;;;;;;;;;;19.30;30.00;;;;;;3067965;19;4730;-69
2023/02/28 08:00:05;;;;;;;;;;;19.30;29.80;;;;;;3067999;19;4764;-69
2023/02/28 08:01:07;;;;;;;;;;;19.30;29.70;;;;;;3066582;19;4894;-70
2023/02/28 08:02:14;;;;;;;;;;;19.20;29.70;;;;;;3068314;19;4408;-67
2023/02/28 08:03:14;;;;;;;;;;;19.30;29.70;;;;;;3068386;19;4841;-69
2023/02/28 08:04:18;;;;;;;;;;;19.30;29.80;;;;;;3067601;19;4972;-68
2023/02/28 08:05:19;;;;;;;;;;;19.30;29.90;;;;;;3067903;19;4478;-68
2023/02/28 08:06:22;;;;;;;;;;;19.30;29.80;;;;;;3067935;19;4973;-69
2023/02/28 08:07:23;;;;;;;;;;;19.40;29.70;;;;;;3068876;19;5384;-68
2023/02/28 08:08:23;;;;;;;;;;;19.40;29.50;;;;;;3069275;19;4635;-68
2023/02/28 08:09:24;;;;;;;;;;;19.50;29.60;;;;;;3068051;19;4917;-69
2023/02/28 08:10:25;;;;;;;;;;;19.50;29.60;;;;;;3067593;19;4517;-79
2023/02/28 08:11:25;;;;;;;;;;;19.50;29.40;;;;;;3067262;19;4885;-77
2023/02/28 08:12:26;;;;;;;;;;;19.50;29.40;;;;;;3068919;19;5309;-79
2023/02/28 08:13:27;;;;;;;;;;;19.50;29.30;;;;;;3068554;19;5020;-80
2023/02/28 08:14:28;;;;;;;;;;;19.50;29.30;;;;;;3068446;19;4929;-79
2023/02/28 08:15:28;;;;;;;;;;;19.50;29.30;;;;;;3063016;19;5406;-72
2023/02/28 08:16:30;;;;;;;;;;;19.40;29.20;;;;;;3060005;19;4901;-70
2023/02/28 08:17:31;;;;;;;;;;;19.40;29.20;;;;;;3059193;19;4925;-71
2023/02/28 08:18:32;;;;;;;;;;;19.40;29.30;;;;;;3058047;19;5005;-71
2023/02/28 08:19:34;;;;;;;;;;;19.40;29.20;;;;;;3058383;19;5043;-71
2023/02/28 08:20:35;;;;;;;;;;;19.40;29.30;;;;;;3059406;19;4403;-72
2023/02/28 08:21:35;;;;;;;;;;;19.40;29.30;;;;;;3057802;19;4466;-71
2023/02/28 08:22:36;;;;;;;;;;;19.30;29.20;;;;;;3058691;19;4938;-71
2023/02/28 08:23:37;;;;;;;;;;;19.30;29.30;;;;;;3058076;19;4354;-72
2023/02/28 08:24:40;;;;;;;;;;;19.30;29.30;;;;;;3057568;19;4989;-71
2023/02/28 08:25:41;;;;;;;;;;;19.30;29.30;;;;;;3057766;19;4449;-72
2023/02/28 08:26:41;;;;;;;;;;;19.20;29.30;;;;;;3057523;19;4996;-72
2023/02/28 08:27:42;;;;;;;;;;;19.20;29.20;;;;;;3057379;19;5032;-71
2023/02/28 08:28:44;;;;;;;;;;;19.20;29.30;;;;;;3057930;19;4912;-72
2023/02/28 08:29:44;;;;;;;;;;;19.20;29.30;;;;;;3055871;19;4815;-71
2023/02/28 08:30:45;;;;;;;;;;;19.20;29.40;;;;;;3054693;19;4942;-72
2023/02/28 08:31:47;;;;;;;;;;;19.20;29.30;;;;;;3056683;19;5056;-72
2023/02/28 08:32:47;;;;;;;;;;;19.10;29.40;;;;;;3056918;19;4922;-71
2023/02/28 08:33:50;;;;;;;;;;;19.10;29.30;;;;;;3056387;19;4391;-72
2023/02/28 08:34:51;;;;;;;;;;;19.10;29.30;;;;;;3056633;19;5400;-71
2023/02/28 08:35:53;;;;;;;;;;;19.10;29.20;;;;;;3056319;19;4964;-71
2023/02/28 08:36:54;;;;;;;;;;;19.10;29.40;;;;;;3056616;19;4391;-71
2023/02/28 08:37:55;;;;;;;;;;;19.20;29.40;;;;;;3056035;19;4938;-72
2023/02/28 08:38:56;;;;;;;;;;;19.20;29.50;;;;;;3055882;19;4413;-73
2023/02/28 08:39:57;;;;;;;;;;;19.20;29.30;;;;;;3033920;19;4232;-72
2023/02/28 08:40:59;;;;;;;;;;;19.20;29.20;;;;;;3055517;19;4404;-76
2023/02/28 08:41:59;;;;;;;;;;;19.20;29.10;;;;;;3056813;19;5051;-75
2023/02/28 08:43:00;;;;;;;;;;;19.30;29.10;;;;;;3056738;19;4902;-75